Time;durP1;ratioP1;P1;durP2;ratioP2;P2;SDS_P1;SDS_P2;PMS_P1;PMS_P2;Temp;Humidity;BMP_temperature;BMP_pressure;BME280_temperature;BME280_humidity;BME280_pressure;Samples;Min_cycle;Max_cycle;Signal;HPM_P1;HPM_P2
2022/09/02 00:01:31;;;;;;;1.40;0.60;;;14.60;99.90;;;;;;5113709;28;20467;-85
2022/09/02 00:04:01;;;;;;;0.50;0.50;;;14.60;99.90;;;;;;5110781;28;20819;-84
2022/09/02 00:06:30;;;;;;;1.17;0.50;;;14.50;99.90;;;;;;5110108;27;20464;-84
2022/09/02 00:08:57;;;;;;;0.77;0.63;;;14.50;99.90;;;;;;5104589;27;20533;-86
2022/09/02 00:11:27;;;;;;;0.70;0.60;;;14.50;99.90;;;;;;5107777;27;20468;-85
2022/09/02 00:13:55;;;;;;;1.07;0.80;;;14.50;99.90;;;;;;5105653;27;21197;-85
2022/09/02 00:16:23;;;;;;;0.97;0.90;;;14.40;99.90;;;;;;5106206;27;20542;-89
2022/09/02 00:18:53;;;;;;;2.70;1.00;;;14.40;99.90;;;;;;5107170;27;20786;-86
2022/09/02 00:21:21;;;;;;;0.80;0.80;;;14.30;99.90;;;;;;5096727;27;21217;-86
2022/09/02 00:23:48;;;;;;;0.70;0.70;;;14.30;99.90;;;;;;5102129;28;20992;-86
2022/09/02 00:26:16;;;;;;;1.00;0.70;;;14.20;99.90;;;;;;5098077;28;20521;-88
2022/09/02 00:28:43;;;;;;;1.87;0.63;;;14.10;99.90;;;;;;5102312;28;20445;-85
2022/09/02 00:31:10;;;;;;;1.10;0.57;;;14.00;99.90;;;;;;5099840;28;20469;-85
2022/09/02 00:33:38;;;;;;;1.00;0.50;;;13.90;99.90;;;;;;5104118;28;20458;-84
2022/09/02 00:36:07;;;;;;;0.70;0.70;;;13.90;99.90;;;;;;5101046;28;20479;-84
2022/09/02 00:38:36;;;;;;;1.07;0.60;;;13.90;99.90;;;;;;5108360;28;20472;-84
2022/09/02 00:41:08;;;;;;;2.40;1.00;;;13.70;99.90;;;;;;5101899;28;20451;-85
2022/09/02 00:43:42;;;;;;;0.87;0.60;;;13.70;99.90;;;;;;5107309;28;20472;-84
2022/09/02 00:46:10;;;;;;;0.60;0.60;;;13.70;99.90;;;;;;5107576;28;20479;-84
2022/09/02 00:48:41;;;;;;;0.60;0.60;;;13.60;99.90;;;;;;5089992;28;20490;-84
2022/09/02 00:51:11;;;;;;;0.80;0.60;;;13.60;99.90;;;;;;5102144;28;20543;-84
2022/09/02 00:53:41;;;;;;;0.67;0.60;;;13.50;99.90;;;;;;5099486;28;20458;-84
2022/09/02 00:56:11;;;;;;;0.70;0.60;;;13.50;99.90;;;;;;5104884;27;21127;-84
2022/09/02 00:58:40;;;;;;;0.70;0.70;;;13.30;99.90;;;;;;5114335;27;20521;-84
2022/09/02 01:01:08;;;;;;;0.50;0.50;;;13.30;99.90;;;;;;5107254;27;20468;-87
2022/09/02 01:03:35;;;;;;;0.60;0.60;;;13.20;99.90;;;;;;5108668;27;20470;-86
2022/09/02 01:06:03;;;;;;;0.90;0.60;;;13.20;99.90;;;;;;5110708;27;20907;-89
2022/09/02 01:08:34;;;;;;;0.63;0.63;;;13.20;99.90;;;;;;5104697;28;20480;-84
2022/09/02 01:11:05;;;;;;;1.20;0.90;;;13.10;99.90;;;;;;5106931;28;20480;-86
2022/09/02 01:13:36;;;;;;;0.70;0.60;;;13.10;99.90;;;;;;5105965;27;20460;-84
2022/09/02 01:16:11;;;;;;;0.70;0.70;;;13.00;99.90;;;;;;5104453;27;21206;-87
2022/09/02 01:18:38;;;;;;;1.03;0.70;;;12.90;99.90;;;;;;5103619;27;20452;-85
2022/09/02 01:21:06;;;;;;;0.60;0.60;;;12.70;99.90;;;;;;5109132;27;20461;-84
2022/09/02 01:23:35;;;;;;;1.10;0.70;;;12.70;99.90;;;;;;5108483;27;20489;-84
2022/09/02 01:26:03;;;;;;;0.90;0.47;;;12.80;99.90;;;;;;5102513;27;20537;-84
2022/09/02 01:28:32;;;;;;;0.60;0.60;;;12.70;99.90;;;;;;5107800;27;20483;-84
2022/09/02 01:30:59;;;;;;;3.30;1.60;;;12.70;99.90;;;;;;5104174;27;20462;-84
2022/09/02 01:33:26;;;;;;;2.60;0.97;;;12.70;99.90;;;;;;5105240;27;20463;-84
2022/09/02 01:35:54;;;;;;;1.13;0.83;;;12.70;99.90;;;;;;5102517;28;20486;-87
2022/09/02 01:38:24;;;;;;;0.70;0.70;;;12.60;99.90;;;;;;5104491;27;20912;-88
2022/09/02 01:40:52;;;;;;;1.87;1.10;;;12.60;99.90;;;;;;5100728;28;20467;-85
2022/09/02 01:43:22;;;;;;;0.80;0.50;;;12.60;99.90;;;;;;5106612;27;20913;-84
2022/09/02 01:45:51;;;;;;;0.80;0.80;;;12.50;99.90;;;;;;5105855;27;20574;-86
2022/09/02 01:48:19;;;;;;;0.77;0.70;;;12.30;99.90;;;;;;5102271;27;20471;-84
2022/09/02 01:50:49;;;;;;;0.70;0.70;;;12.20;99.90;;;;;;5099750;27;20501;-87
2022/09/02 01:53:16;;;;;;;0.70;0.70;;;12.20;99.90;;;;;;5107279;27;20511;-85
2022/09/02 01:55:44;;;;;;;0.73;0.73;;;12.20;99.90;;;;;;5106638;28;20483;-84
2022/09/02 01:58:12;;;;;;;0.83;0.73;;;12.10;99.90;;;;;;5102275;28;20456;-84
2022/09/02 02:00:39;;;;;;;0.73;0.60;;;12.10;99.90;;;;;;5103322;28;20466;-87
2022/09/02 02:03:06;;;;;;;1.13;0.60;;;12.00;99.90;;;;;;5101155;28;20949;-84
2022/09/02 02:05:34;;;;;;;1.03;0.80;;;12.10;99.90;;;;;;5104992;27;20536;-87
2022/09/02 02:08:01;;;;;;;1.07;0.77;;;12.10;99.90;;;;;;5105760;27;20460;-88
2022/09/02 02:10:29;;;;;;;4.40;1.07;;;12.20;99.90;;;;;;5106939;27;20439;-86
2022/09/02 02:12:56;;;;;;;1.10;1.00;;;12.10;99.90;;;;;;5100929;27;20463;-85
2022/09/02 02:15:25;;;;;;;0.83;0.83;;;12.10;99.90;;;;;;5103549;27;20576;-84
2022/09/02 02:17:52;;;;;;;1.33;1.00;;;12.10;99.90;;;;;;5104260;27;20490;-84
2022/09/02 02:20:20;;;;;;;0.70;0.70;;;12.10;99.90;;;;;;5105305;28;20451;-87
2022/09/02 02:22:48;;;;;;;0.93;0.80;;;11.90;99.90;;;;;;5106617;27;20518;-85
2022/09/02 02:25:16;;;;;;;1.00;0.70;;;11.90;99.90;;;;;;5107593;27;20862;-83
2022/09/02 02:27:44;;;;;;;1.10;1.00;;;11.90;99.90;;;;;;5103031;27;20489;-83
2022/09/02 02:30:14;;;;;;;0.70;0.70;;;11.80;99.90;;;;;;5105460;27;20457;-84
2022/09/02 02:32:45;;;;;;;0.60;0.60;;;11.80;99.90;;;;;;5101172;27;20471;-84
2022/09/02 02:35:14;;;;;;;1.23;0.87;;;11.90;99.90;;;;;;5105053;27;20461;-84
2022/09/02 02:37:41;;;;;;;1.20;1.10;;;11.90;99.90;;;;;;5103121;28;20546;-84
2022/09/02 02:40:10;;;;;;;5.77;0.97;;;11.80;99.90;;;;;;5108402;27;20466;-88
2022/09/02 02:42:38;;;;;;;1.00;0.90;;;11.80;99.90;;;;;;5097198;27;20462;-83
2022/09/02 02:45:08;;;;;;;1.17;1.07;;;11.80;99.90;;;;;;5097731;28;20550;-83
2022/09/02 02:47:38;;;;;;;1.40;1.00;;;11.70;99.90;;;;;;5102653;27;20457;-85
2022/09/02 02:50:09;;;;;;;2.20;1.50;;;11.70;99.90;;;;;;5100491;28;20824;-83
2022/09/02 02:52:36;;;;;;;0.77;0.70;;;11.70;99.90;;;;;;5103815;27;20532;-86
2022/09/02 02:55:05;;;;;;;1.20;1.10;;;11.70;99.90;;;;;;5103994;27;20474;-85
2022/09/02 02:57:32;;;;;;;4.03;1.10;;;11.70;99.90;;;;;;5103076;27;20453;-84
2022/09/02 03:00:04;;;;;;;2.30;1.17;;;11.70;99.90;;;;;;5105681;27;20863;-86
2022/09/02 03:02:32;;;;;;;2.60;1.33;;;11.70;99.90;;;;;;5106298;27;20458;-83
2022/09/02 03:05:00;;;;;;;2.20;1.03;;;11.70;99.90;;;;;;5103339;27;20459;-84
2022/09/02 03:07:28;;;;;;;0.80;0.80;;;11.60;99.90;;;;;;5104392;27;20479;-84
2022/09/02 03:09:55;;;;;;;2.10;1.10;;;11.70;99.90;;;;;;5102351;27;21024;-85
2022/09/02 03:12:24;;;;;;;1.10;0.87;;;11.60;99.90;;;;;;5099616;27;20522;-84
2022/09/02 03:14:51;;;;;;;1.60;1.13;;;11.60;99.90;;;;;;5107180;27;20506;-84
2022/09/02 03:17:19;;;;;;;0.80;0.80;;;11.50;99.90;;;;;;5099818;27;20481;-87
2022/09/02 03:19:46;;;;;;;1.27;0.70;;;11.60;99.90;;;;;;5105447;28;20458;-83
2022/09/02 03:22:13;;;;;;;0.97;0.93;;;11.50;99.90;;;;;;5105413;27;21024;-83
2022/09/02 03:24:41;;;;;;;2.53;1.00;;;11.40;99.90;;;;;;5103865;28;20500;-88
2022/09/02 03:27:08;;;;;;;1.00;1.00;;;11.50;99.90;;;;;;5102520;28;20539;-84
2022/09/02 03:29:35;;;;;;;2.13;1.13;;;11.40;99.90;;;;;;5098284;28;20932;-83
2022/09/02 03:32:03;;;;;;;1.07;0.97;;;11.30;99.90;;;;;;5099739;28;20526;-84
2022/09/02 03:34:31;;;;;;;2.87;1.03;;;11.30;99.90;;;;;;5103757;27;20543;-84
2022/09/02 03:36:58;;;;;;;1.17;1.03;;;11.20;99.90;;;;;;5104486;28;20984;-84
2022/09/02 03:39:25;;;;;;;2.30;1.00;;;11.30;99.90;;;;;;5099419;27;20973;-84
2022/09/02 03:41:54;;;;;;;1.57;1.10;;;11.30;99.90;;;;;;5101277;27;20462;-84
2022/09/02 03:44:21;;;;;;;1.37;1.00;;;11.20;99.90;;;;;;5096894;28;20463;-84
2022/09/02 03:46:48;;;;;;;1.10;1.00;;;11.20;99.90;;;;;;5098342;28;20470;-83
2022/09/02 03:49:15;;;;;;;1.10;1.00;;;11.20;99.90;;;;;;5103534;28;20465;-84
2022/09/02 03:51:43;;;;;;;1.20;1.00;;;11.20;99.90;;;;;;5103289;28;20527;-83
2022/09/02 03:54:11;;;;;;;1.33;0.80;;;11.10;99.90;;;;;;5103737;28;20454;-83
2022/09/02 03:56:38;;;;;;;1.10;0.90;;;11.10;99.90;;;;;;5103217;28;20482;-81
2022/09/02 03:59:06;;;;;;;8.03;1.10;;;11.10;99.90;;;;;;5105372;28;20507;-83
2022/09/02 04:01:33;;;;;;;1.47;0.70;;;11.10;99.90;;;;;;5100379;28;21026;-86
2022/09/02 04:04:01;;;;;;;1.57;1.47;;;11.10;99.90;;;;;;5103422;27;20574;-87
2022/09/02 04:06:28;;;;;;;1.03;0.90;;;11.10;99.90;;;;;;5103309;27;20466;-81
2022/09/02 04:08:55;;;;;;;1.17;0.93;;;11.10;99.90;;;;;;5103146;28;20486;-86
2022/09/02 04:11:23;;;;;;;1.37;1.27;;;11.10;99.90;;;;;;5106452;27;20956;-86
2022/09/02 04:13:52;;;;;;;1.47;1.37;;;11.00;99.90;;;;;;5102834;28;20953;-82
2022/09/02 04:16:27;;;;;;;1.27;1.17;;;11.10;99.90;;;;;;5103131;27;20470;-83
2022/09/02 04:18:55;;;;;;;0.93;0.80;;;11.00;99.90;;;;;;5099846;28;20453;-82
2022/09/02 04:21:22;;;;;;;2.60;1.13;;;11.00;99.90;;;;;;5096974;28;20461;-83
2022/09/02 04:23:51;;;;;;;1.30;1.20;;;10.90;99.90;;;;;;5103091;28;20746;-83
2022/09/02 04:26:19;;;;;;;2.03;1.20;;;10.80;99.90;;;;;;5102853;27;20508;-83
2022/09/02 04:28:47;;;;;;;0.90;0.90;;;10.90;99.90;;;;;;5100929;28;20486;-83
2022/09/02 04:31:16;;;;;;;1.63;1.30;;;10.90;99.90;;;;;;5098882;28;20996;-85
2022/09/02 04:33:45;;;;;;;1.10;1.00;;;10.90;99.90;;;;;;5103677;28;20470;-86
2022/09/02 04:36:15;;;;;;;1.43;1.33;;;10.80;99.90;;;;;;5100576;28;20490;-82
2022/09/02 04:38:42;;;;;;;0.90;0.90;;;10.90;99.90;;;;;;5099918;28;20523;-83
2022/09/02 04:41:11;;;;;;;1.33;1.20;;;10.90;99.90;;;;;;5103354;28;20457;-83
2022/09/02 04:43:39;;;;;;;1.27;1.17;;;10.90;99.90;;;;;;5093319;28;20873;-83
2022/09/02 04:46:09;;;;;;;2.40;1.97;;;10.90;99.90;;;;;;5099954;28;20459;-85
2022/09/02 04:48:38;;;;;;;1.10;1.00;;;10.90;99.90;;;;;;5103553;28;20506;-86
2022/09/02 04:51:08;;;;;;;2.03;1.60;;;10.90;99.90;;;;;;5097812;28;20467;-87
2022/09/02 04:53:36;;;;;;;3.37;1.90;;;11.00;99.90;;;;;;5100455;28;20965;-84
2022/09/02 04:56:04;;;;;;;2.57;1.57;;;11.00;99.90;;;;;;5112653;28;20469;-86
2022/09/02 04:58:31;;;;;;;1.33;1.23;;;11.10;99.90;;;;;;5112794;28;20490;-82
2022/09/02 05:00:59;;;;;;;0.97;0.90;;;11.10;99.90;;;;;;5115612;28;20446;-83
2022/09/02 05:03:27;;;;;;;1.40;1.30;;;11.10;99.90;;;;;;5098973;28;20532;-83
2022/09/02 05:06:02;;;;;;;1.90;1.83;;;11.20;99.90;;;;;;5099861;28;20462;-83
2022/09/02 05:08:30;;;;;;;1.20;1.10;;;11.20;99.90;;;;;;5101181;28;20458;-84
2022/09/02 05:10:57;;;;;;;1.40;1.20;;;11.20;99.90;;;;;;5103749;28;20449;-86
2022/09/02 05:13:25;;;;;;;1.53;0.80;;;11.20;99.90;;;;;;5099120;28;20957;-84
2022/09/02 05:15:53;;;;;;;1.90;1.80;;;11.30;99.90;;;;;;5098924;28;20553;-82
2022/09/02 05:18:20;;;;;;;2.23;2.13;;;11.40;99.90;;;;;;5092987;28;20546;-83
2022/09/02 05:20:47;;;;;;;1.30;1.00;;;11.50;99.90;;;;;;5104612;28;20463;-84
2022/09/02 05:23:14;;;;;;;2.33;1.30;;;11.40;99.90;;;;;;5106885;28;20799;-83
2022/09/02 05:25:43;;;;;;;1.43;1.30;;;11.50;99.90;;;;;;5094901;28;20478;-82
2022/09/02 05:28:11;;;;;;;1.10;1.00;;;11.60;99.90;;;;;;5097994;28;20453;-82
2022/09/02 05:30:39;;;;;;;5.43;1.37;;;11.60;99.90;;;;;;5096690;28;20480;-83
2022/09/02 05:33:08;;;;;;;1.87;1.60;;;11.80;99.90;;;;;;5113846;27;20441;-83
2022/09/02 05:35:39;;;;;;;0.93;0.90;;;11.80;99.90;;;;;;5103238;28;21046;-86
2022/09/02 05:38:07;;;;;;;6.30;1.23;;;11.90;99.90;;;;;;5104909;28;20863;-86
2022/09/02 05:40:34;;;;;;;1.63;1.53;;;11.90;99.90;;;;;;5108930;28;20531;-80
2022/09/02 05:43:02;;;;;;;0.90;0.90;;;12.00;99.90;;;;;;5109561;27;20468;-81
2022/09/02 05:45:29;;;;;;;1.37;1.27;;;12.10;99.90;;;;;;5113453;27;20501;-82
2022/09/02 05:47:57;;;;;;;1.63;1.53;;;12.20;99.90;;;;;;5108323;27;20478;-81
2022/09/02 05:50:24;;;;;;;1.63;1.27;;;12.30;99.90;;;;;;5105909;27;20510;-80
2022/09/02 05:52:51;;;;;;;1.40;1.23;;;12.40;99.90;;;;;;5102050;27;20966;-79
2022/09/02 05:55:18;;;;;;;1.90;1.80;;;12.40;99.90;;;;;;5099666;28;20875;-80
2022/09/02 05:57:45;;;;;;;0.97;0.90;;;12.40;99.90;;;;;;5104211;27;20462;-80
2022/09/02 06:00:15;;;;;;;1.73;1.63;;;12.60;99.90;;;;;;5105661;27;20446;-80
2022/09/02 06:02:42;;;;;;;0.80;0.60;;;12.70;99.90;;;;;;5104374;28;20542;-81
2022/09/02 06:05:11;;;;;;;0.70;0.70;;;12.80;99.90;;;;;;5097316;27;20955;-80
2022/09/02 06:07:38;;;;;;;1.10;0.70;;;12.90;99.90;;;;;;5103549;27;20592;-80
2022/09/02 06:10:06;;;;;;;0.80;0.70;;;13.10;99.90;;;;;;5111254;27;20447;-81
2022/09/02 06:12:33;;;;;;;0.90;0.83;;;13.20;99.90;;;;;;5102544;27;20457;-83
2022/09/02 06:15:01;;;;;;;0.60;0.60;;;13.30;99.90;;;;;;5101947;27;20453;-81
2022/09/02 06:17:30;;;;;;;0.83;0.83;;;13.30;99.90;;;;;;5094101;27;20476;-81
2022/09/02 06:19:57;;;;;;;1.23;0.83;;;13.50;99.90;;;;;;5084043;27;20458;-83
2022/09/02 06:22:24;;;;;;;1.60;0.60;;;13.60;99.90;;;;;;5086199;27;22607;-80
2022/09/02 06:24:52;;;;;;;0.60;0.60;;;13.70;99.90;;;;;;5086071;27;21154;-81
2022/09/02 06:27:18;;;;;;;0.77;0.70;;;13.80;99.90;;;;;;5085563;27;20495;-81
2022/09/02 06:29:45;;;;;;;1.37;0.97;;;13.90;99.90;;;;;;5098508;27;20476;-80
2022/09/02 06:32:13;;;;;;;1.47;0.90;;;14.10;99.90;;;;;;5099932;27;20814;-81
2022/09/02 06:34:41;;;;;;;1.20;0.90;;;14.20;99.90;;;;;;5102942;27;20547;-83
2022/09/02 06:37:08;;;;;;;0.57;0.57;;;14.20;99.90;;;;;;5093787;27;20476;-80
2022/09/02 06:39:36;;;;;;;1.40;0.53;;;14.20;99.90;;;;;;5104556;27;20483;-81
2022/09/02 06:42:04;;;;;;;0.73;0.60;;;14.30;99.90;;;;;;5096818;28;20465;-81
2022/09/02 06:44:31;;;;;;;0.57;0.50;;;14.40;99.90;;;;;;5105418;27;20488;-84
2022/09/02 06:46:59;;;;;;;0.70;0.70;;;14.60;99.90;;;;;;5102020;27;20476;-83
2022/09/02 06:49:28;;;;;;;1.10;0.70;;;14.70;99.90;;;;;;5105701;27;20570;-84
2022/09/02 06:51:58;;;;;;;0.60;0.57;;;14.90;99.90;;;;;;5101948;27;20452;-82
2022/09/02 06:54:25;;;;;;;0.70;0.57;;;14.80;99.90;;;;;;5106519;27;20539;-82
2022/09/02 06:56:53;;;;;;;0.80;0.60;;;14.70;99.90;;;;;;5104036;27;20933;-82
2022/09/02 06:59:21;;;;;;;0.97;0.70;;;14.60;99.90;;;;;;5097125;27;20535;-83
2022/09/02 07:01:49;;;;;;;0.77;0.60;;;14.70;99.90;;;;;;5094319;27;20460;-81
2022/09/02 07:07:04;;;;;;;0.80;0.60;;;14.90;99.90;;;;;;5098619;28;20484;-81
2022/09/02 07:09:31;;;;;;;0.50;0.40;;;15.00;99.90;;;;;;5100318;28;20458;-80
2022/09/02 07:11:59;;;;;;;0.67;0.50;;;15.00;99.90;;;;;;5094932;27;20457;-79
2022/09/02 07:14:27;;;;;;;1.10;0.47;;;15.10;99.90;;;;;;5098799;27;20600;-82
2022/09/02 07:16:56;;;;;;;1.13;0.60;;;15.10;99.90;;;;;;5090372;27;20890;-82
2022/09/02 07:19:25;;;;;;;1.70;0.70;;;15.00;99.90;;;;;;5104175;27;20468;-82
2022/09/02 07:21:52;;;;;;;0.87;0.67;;;15.20;99.90;;;;;;5095790;27;20502;-82
2022/09/02 07:24:21;;;;;;;0.80;0.50;;;15.30;99.90;;;;;;5094106;28;20463;-83
2022/09/02 07:26:49;;;;;;;0.70;0.70;;;15.40;99.90;;;;;;5097631;28;20492;-82
2022/09/02 07:29:17;;;;;;;2.50;0.60;;;15.30;99.90;;;;;;5099928;28;20469;-83
2022/09/02 07:31:46;;;;;;;2.27;0.97;;;15.40;99.90;;;;;;5098392;27;20474;-84
2022/09/02 07:34:14;;;;;;;0.63;0.57;;;15.50;99.90;;;;;;5101315;27;20509;-83
2022/09/02 07:36:42;;;;;;;1.43;0.60;;;15.60;99.90;;;;;;5100864;28;20552;-82
2022/09/02 07:39:11;;;;;;;1.53;0.43;;;15.70;99.90;;;;;;5095038;27;20531;-82
2022/09/02 07:41:41;;;;;;;0.70;0.70;;;15.80;99.90;;;;;;5091200;27;22626;-81
2022/09/02 07:44:08;;;;;;;2.10;0.63;;;16.10;99.90;;;;;;5103280;27;20515;-81
2022/09/02 07:46:36;;;;;;;0.50;0.50;;;16.10;99.90;;;;;;5099834;28;20461;-81
2022/09/02 07:49:06;;;;;;;2.03;1.00;;;16.30;99.90;;;;;;5098296;28;20499;-82
2022/09/02 07:51:34;;;;;;;2.60;0.50;;;16.60;99.90;;;;;;5097594;28;20522;-80
2022/09/02 07:54:01;;;;;;;0.80;0.53;;;16.50;99.90;;;;;;5097416;27;20525;-81
2022/09/02 07:56:29;;;;;;;2.50;0.57;;;16.40;99.90;;;;;;5103208;27;20541;-83
2022/09/02 07:58:57;;;;;;;0.73;0.60;;;16.60;99.90;;;;;;5110658;27;20509;-82
2022/09/02 08:01:25;;;;;;;0.70;0.60;;;16.80;99.90;;;;;;5108457;28;20477;-81
2022/09/02 08:03:52;;;;;;;0.67;0.60;;;16.90;99.90;;;;;;5113250;28;20495;-81
2022/09/02 08:06:19;;;;;;;0.90;0.67;;;17.10;99.90;;;;;;5100787;27;20513;-81
2022/09/02 08:08:47;;;;;;;1.50;0.50;;;17.10;99.90;;;;;;5117495;27;20578;-81
2022/09/02 08:11:14;;;;;;;0.60;0.60;;;17.00;99.90;;;;;;5111744;27;20460;-81
2022/09/02 08:13:41;;;;;;;0.70;0.50;;;16.90;99.90;;;;;;5102463;27;20541;-83
2022/09/02 08:16:09;;;;;;;2.07;0.50;;;17.00;99.90;;;;;;5106509;27;20440;-80
2022/09/02 08:18:36;;;;;;;0.90;0.60;;;17.20;99.90;;;;;;5108222;27;20516;-81
2022/09/02 08:21:03;;;;;;;1.93;0.50;;;17.40;99.90;;;;;;5101942;27;20450;-83
2022/09/02 08:23:31;;;;;;;0.67;0.60;;;17.40;99.90;;;;;;5099511;27;21256;-82
2022/09/02 08:25:59;;;;;;;1.00;0.50;;;17.60;99.90;;;;;;5100260;28;20489;-81
2022/09/02 08:28:27;;;;;;;0.70;0.40;;;17.60;99.90;;;;;;5095611;28;20481;-84
2022/09/02 08:30:57;;;;;;;1.10;0.83;;;17.60;99.90;;;;;;5098598;27;20473;-83
2022/09/02 08:33:26;;;;;;;0.77;0.50;;;17.80;99.90;;;;;;5093128;28;20460;-83
2022/09/02 08:35:53;;;;;;;0.50;0.40;;;17.90;99.90;;;;;;5100327;28;20522;-82
2022/09/02 08:38:21;;;;;;;1.37;0.70;;;17.90;99.90;;;;;;5098729;28;20477;-82
2022/09/02 08:40:49;;;;;;;0.90;0.43;;;17.90;99.90;;;;;;5097735;28;20544;-83
2022/09/02 08:43:30;;;;;;;1.43;0.50;;;18.00;99.30;;;;;;5101984;28;20592;-80
2022/09/02 08:46:01;;;;;;;0.60;0.40;;;17.90;99.90;;;;;;5103092;28;20464;-86
2022/09/02 08:48:37;;;;;;;0.50;0.43;;;17.90;99.40;;;;;;5102088;28;20496;-82
2022/09/02 08:51:08;;;;;;;0.67;0.43;;;17.80;99.20;;;;;;5094893;28;21306;-84
2022/09/02 08:53:45;;;;;;;0.63;0.47;;;17.90;99.40;;;;;;5097994;28;20510;-80
2022/09/02 08:56:17;;;;;;;0.50;0.40;;;17.80;98.10;;;;;;5105068;28;20466;-82
2022/09/02 08:58:47;;;;;;;0.70;0.47;;;17.90;99.00;;;;;;5099190;28;20471;-80
2022/09/02 09:01:24;;;;;;;0.97;0.67;;;17.90;99.30;;;;;;5092720;28;20481;-81
2022/09/02 09:04:21;;;;;;;1.33;0.50;;;18.00;99.90;;;;;;5097008;28;20550;-81
2022/09/02 09:07:06;;;;;;;0.87;0.50;;;18.10;99.90;;;;;;5090443;28;20952;-80
2022/09/02 09:09:44;;;;;;;0.40;0.40;;;18.30;99.90;;;;;;5107774;28;20505;-82
2022/09/02 09:12:20;;;;;;;0.60;0.50;;;18.50;99.00;;;;;;5095916;28;20952;-83
2022/09/02 09:14:55;;;;;;;1.07;0.50;;;18.60;99.90;;;;;;5092364;28;20455;-82
2022/09/02 09:17:28;;;;;;;1.57;0.50;;;18.70;99.00;;;;;;5103796;27;20462;-82
2022/09/02 09:20:01;;;;;;;0.70;0.67;;;18.90;96.40;;;;;;5100026;27;20456;-81
2022/09/02 09:22:32;;;;;;;0.53;0.43;;;18.90;98.20;;;;;;5099479;27;20455;-81
2022/09/02 09:24:59;;;;;;;0.60;0.30;;;19.10;97.40;;;;;;5093114;28;20519;-82
2022/09/02 09:27:27;;;;;;;6.90;0.50;;;19.10;97.00;;;;;;5106972;27;20490;-83
2022/09/02 09:29:54;;;;;;;1.13;0.50;;;18.90;96.20;;;;;;5095039;27;20463;-82
2022/09/02 09:32:26;;;;;;;0.60;0.50;;;19.00;98.20;;;;;;5098778;27;20472;-82
2022/09/02 09:35:05;;;;;;;0.50;0.40;;;19.30;96.90;;;;;;5101416;27;20978;-81
2022/09/02 09:37:39;;;;;;;0.90;0.53;;;19.30;95.50;;;;;;5104611;27;20551;-83
2022/09/02 09:40:23;;;;;;;1.00;0.57;;;19.50;94.80;;;;;;5099195;27;20461;-82
2022/09/02 09:42:55;;;;;;;0.63;0.40;;;19.50;93.80;;;;;;5095692;28;20492;-82
2022/09/02 09:45:32;;;;;;;2.73;2.53;;;19.40;94.80;;;;;;5098270;27;20461;-84
2022/09/02 09:48:19;;;;;;;0.60;0.50;;;19.30;94.20;;;;;;5099222;28;20515;-82
2022/09/02 09:50:48;;;;;;;0.60;0.40;;;19.20;92.90;;;;;;5104345;27;20459;-82
2022/09/02 09:53:19;;;;;;;2.63;0.60;;;19.50;94.40;;;;;;5099202;27;20466;-82
2022/09/02 09:55:52;;;;;;;0.80;0.50;;;19.50;92.00;;;;;;5101789;27;20458;-84
2022/09/02 09:58:22;;;;;;;0.93;0.50;;;19.60;94.50;;;;;;5101523;27;20465;-81
2022/09/02 10:00:59;;;;;;;1.10;0.40;;;19.50;91.70;;;;;;5110465;27;20520;-84
2022/09/02 10:03:28;;;;;;;0.60;0.40;;;19.30;91.70;;;;;;5111869;27;21088;-84
2022/09/02 10:05:58;;;;;;;1.63;0.80;;;19.30;92.90;;;;;;5109848;27;20445;-81
2022/09/02 10:08:27;;;;;;;1.27;0.50;;;19.20;92.10;;;;;;5099365;27;20474;-81
2022/09/02 10:11:00;;;;;;;0.60;0.37;;;19.20;90.10;;;;;;5103302;27;20469;-82
2022/09/02 10:13:29;;;;;;;0.70;0.50;;;19.10;86.50;;;;;;5104029;27;21044;-81
2022/09/02 10:16:18;;;;;;;1.33;0.40;;;19.30;89.90;;;;;;5099380;28;20469;-82
2022/09/02 10:18:49;;;;;;;0.80;0.40;;;19.40;92.20;;;;;;5103491;27;20474;-81
2022/09/02 10:21:32;;;;;;;0.50;0.40;;;19.40;90.90;;;;;;5099924;28;20879;-85
2022/09/02 10:24:09;;;;;;;1.77;0.40;;;19.70;91.80;;;;;;5093956;27;20468;-80
2022/09/02 10:26:41;;;;;;;0.50;0.40;;;19.80;91.60;;;;;;5096958;27;20616;-82
2022/09/02 10:29:28;;;;;;;0.60;0.40;;;19.80;90.30;;;;;;5098402;27;20469;-84
2022/09/02 10:32:16;;;;;;;0.50;0.40;;;19.90;91.90;;;;;;5099731;28;20540;-81
2022/09/02 10:34:51;;;;;;;0.40;0.30;;;20.10;90.90;;;;;;5093516;27;20467;-83
2022/09/02 10:37:22;;;;;;;0.50;0.33;;;20.00;91.60;;;;;;5094489;27;20468;-81
2022/09/02 10:40:10;;;;;;;0.40;0.30;;;20.00;90.00;;;;;;5092140;27;21264;-83
2022/09/02 10:42:46;;;;;;;0.40;0.30;;;20.20;89.60;;;;;;5096576;27;20461;-82
2022/09/02 10:45:23;;;;;;;0.40;0.40;;;20.40;91.50;;;;;;5099822;27;20459;-82
2022/09/02 10:47:57;;;;;;;1.90;0.30;;;20.20;85.10;;;;;;5099766;27;20543;-82
2022/09/02 10:50:37;;;;;;;0.50;0.40;;;20.00;85.40;;;;;;5105153;27;20461;-82
2022/09/02 10:53:30;;;;;;;0.53;0.30;;;20.10;87.50;;;;;;5105885;27;20634;-81
2022/09/02 10:56:02;;;;;;;1.10;0.50;;;20.40;85.00;;;;;;5096789;27;20488;-81
2022/09/02 10:58:40;;;;;;;0.50;0.40;;;20.60;86.60;;;;;;5120613;27;20490;-81
2022/09/02 11:01:12;;;;;;;0.60;0.40;;;20.80;86.00;;;;;;5116453;27;20517;-83
2022/09/02 11:03:42;;;;;;;0.40;0.40;;;20.80;84.50;;;;;;5112680;27;20529;-81
2022/09/02 11:06:15;;;;;;;0.50;0.40;;;20.80;86.50;;;;;;5106213;27;20448;-83
2022/09/02 11:08:47;;;;;;;0.50;0.40;;;20.60;86.50;;;;;;5096683;27;20536;-84
2022/09/02 11:11:20;;;;;;;1.43;0.40;;;20.60;86.40;;;;;;5120362;27;20451;-82
2022/09/02 11:14:02;;;;;;;0.60;0.40;;;20.80;84.10;;;;;;5098175;27;20558;-82
2022/09/02 11:16:34;;;;;;;0.50;0.40;;;20.70;86.30;;;;;;5100564;27;20510;-81
2022/09/02 11:19:06;;;;;;;0.80;0.40;;;20.50;85.70;;;;;;5102636;27;20557;-81
2022/09/02 11:21:46;;;;;;;2.93;0.40;;;20.60;85.70;;;;;;5099432;27;20459;-81
2022/09/02 11:24:19;;;;;;;0.40;0.30;;;20.80;83.80;;;;;;5097548;27;20517;-82
2022/09/02 11:26:55;;;;;;;0.93;0.40;;;21.00;83.40;;;;;;5100435;27;20520;-81
2022/09/02 11:29:34;;;;;;;0.50;0.30;;;21.10;81.90;;;;;;5102671;27;20487;-82
2022/09/02 11:32:10;;;;;;;0.47;0.40;;;21.10;88.00;;;;;;5103240;27;20464;-81
2022/09/02 11:34:42;;;;;;;1.10;0.40;;;21.00;79.40;;;;;;5101230;27;20929;-81
2022/09/02 11:37:15;;;;;;;1.40;0.40;;;20.80;82.40;;;;;;5098577;28;20468;-81
2022/09/02 11:39:47;;;;;;;1.17;0.40;;;21.00;82.90;;;;;;5105447;28;20548;-82
2022/09/02 11:42:49;;;;;;;2.00;0.50;;;20.90;82.60;;;;;;5102715;27;20553;-81
2022/09/02 11:45:42;;;;;;;0.50;0.40;;;21.00;85.40;;;;;;5100359;27;20464;-82
2022/09/02 11:48:42;;;;;;;0.50;0.40;;;21.10;85.80;;;;;;5098953;27;20546;-82
2022/09/02 11:51:36;;;;;;;1.00;0.40;;;21.60;82.60;;;;;;5098817;27;20536;-80
2022/09/02 11:54:05;;;;;;;0.40;0.40;;;21.50;79.20;;;;;;5098328;28;21280;-81
2022/09/02 11:56:39;;;;;;;0.50;0.40;;;21.50;80.70;;;;;;5102663;27;20469;-81
2022/09/02 11:59:07;;;;;;;0.50;0.30;;;21.60;77.40;;;;;;5102246;27;20564;-81
2022/09/02 12:01:37;;;;;;;0.53;0.40;;;21.60;77.60;;;;;;5093550;27;20506;-81
2022/09/02 12:04:06;;;;;;;0.60;0.50;;;21.40;79.50;;;;;;5093817;28;20482;-80
2022/09/02 12:06:34;;;;;;;0.70;0.40;;;21.10;80.60;;;;;;5089512;28;20547;-80
2022/09/02 12:09:09;;;;;;;0.60;0.33;;;21.20;80.80;;;;;;5107324;27;20489;-80
2022/09/02 12:11:53;;;;;;;1.43;0.40;;;21.50;84.80;;;;;;5104360;27;20966;-81
2022/09/02 12:15:06;;;;;;;0.50;0.50;;;21.60;81.00;;;;;;5108302;27;20441;-81
2022/09/02 12:17:39;;;;;;;0.50;0.40;;;21.20;79.80;;;;;;5096305;27;20491;-81
2022/09/02 12:20:07;;;;;;;0.60;0.30;;;21.10;81.30;;;;;;5095847;28;21142;-80
2022/09/02 12:22:37;;;;;;;1.07;0.40;;;21.30;81.50;;;;;;5101020;27;21030;-80
2022/09/02 12:25:27;;;;;;;1.77;0.40;;;21.30;78.90;;;;;;5103606;27;20541;-82
2022/09/02 12:28:23;;;;;;;1.13;0.97;;;21.20;76.00;;;;;;5098032;28;20469;-81
2022/09/02 12:31:39;;;;;;;0.60;0.40;;;21.30;79.50;;;;;;5096435;28;20544;-80
2022/09/02 12:34:40;;;;;;;2.50;0.40;;;21.10;73.90;;;;;;5013552;28;21278;-81
2022/09/02 12:37:07;;;;;;;0.50;0.40;;;21.10;75.10;;;;;;5019968;28;20477;-80
2022/09/02 12:39:55;;;;;;;0.60;0.40;;;21.30;77.40;;;;;;5080264;28;20493;-81
2022/09/02 12:42:28;;;;;;;2.50;0.70;;;21.30;72.20;;;;;;5098655;28;20483;-81
2022/09/02 12:45:06;;;;;;;0.50;0.40;;;21.50;73.40;;;;;;5104197;28;20541;-81
2022/09/02 12:47:49;;;;;;;0.60;0.50;;;21.30;71.90;;;;;;5096421;28;20524;-81
2022/09/02 12:50:28;;;;;;;0.50;0.40;;;21.20;73.20;;;;;;5104729;27;20482;-84
2022/09/02 12:53:14;;;;;;;0.50;0.40;;;21.10;71.80;;;;;;5108669;27;20464;-80
2022/09/02 12:55:50;;;;;;;0.50;0.40;;;21.30;69.70;;;;;;5103477;27;20629;-82
2022/09/02 12:58:22;;;;;;;0.50;0.40;;;21.40;71.20;;;;;;5103240;27;20502;-80
2022/09/02 13:01:01;;;;;;;0.50;0.40;;;21.30;73.30;;;;;;5105178;27;20936;-82
2022/09/02 13:03:50;;;;;;;0.40;0.40;;;21.30;75.00;;;;;;5106614;28;20470;-81
2022/09/02 13:06:25;;;;;;;0.40;0.30;;;21.30;76.60;;;;;;5099297;27;20458;-80
2022/09/02 13:09:25;;;;;;;0.67;0.40;;;21.60;75.70;;;;;;5101979;27;20487;-80
2022/09/02 13:12:35;;;;;;;0.50;0.40;;;21.50;72.90;;;;;;5107997;27;20495;-81